Time;durP1;ratioP1;P1;durP2;ratioP2;P2;SDS_P1;SDS_P2;PMS_P1;PMS_P2;Temp;Humidity;BMP_temperature;BMP_pressure;BME280_temperature;BME280_humidity;BME280_pressure;Samples;Min_cycle;Max_cycle;Signal;HPM_P1;HPM_P2
2021/07/19 00:02:00;;;;;;;7.40;3.50;;;23.30;59.90;;;;;;5138229;27;20430;-76
2021/07/19 00:04:27;;;;;;;2.60;2.40;;;23.20;59.90;;;;;;5137714;27;20998;-76
2021/07/19 00:06:53;;;;;;;6.00;2.60;;;23.20;60.10;;;;;;5137531;27;20863;-76
2021/07/19 00:09:20;;;;;;;2.97;2.67;;;23.20;60.20;;;;;;5137696;27;20445;-76
2021/07/19 00:11:47;;;;;;;3.93;2.60;;;23.10;60.40;;;;;;5137849;27;20450;-76
2021/07/19 00:14:15;;;;;;;3.53;2.67;;;23.10;60.40;;;;;;5137724;27;20434;-75
2021/07/19 00:16:42;;;;;;;5.73;2.80;;;23.00;60.30;;;;;;5137331;27;20446;-75
2021/07/19 00:19:09;;;;;;;3.47;3.17;;;23.00;60.70;;;;;;5137619;27;20426;-73
2021/07/19 00:21:36;;;;;;;3.83;3.07;;;23.00;61.30;;;;;;5137609;27;20446;-76
2021/07/19 00:24:03;;;;;;;6.93;3.83;;;22.90;61.10;;;;;;5137478;27;20857;-75
2021/07/19 00:26:29;;;;;;;4.63;2.90;;;22.90;61.30;;;;;;5137501;27;20441;-75
2021/07/19 00:28:56;;;;;;;3.47;3.17;;;22.80;61.50;;;;;;5137412;27;20449;-75
2021/07/19 00:31:25;;;;;;;3.27;2.97;;;22.80;62.50;;;;;;5137290;27;20458;-75
2021/07/19 00:33:52;;;;;;;5.53;3.00;;;22.70;61.70;;;;;;5137373;27;20438;-75
2021/07/19 00:36:18;;;;;;;3.20;2.90;;;22.70;61.90;;;;;;5137332;27;20446;-76
2021/07/19 00:38:45;;;;;;;3.53;3.27;;;22.60;61.90;;;;;;5136949;27;20930;-75
2021/07/19 00:41:12;;;;;;;5.40;3.13;;;22.60;62.10;;;;;;5137256;27;20470;-75
2021/07/19 00:43:39;;;;;;;3.63;2.73;;;22.60;62.30;;;;;;5137143;27;20445;-75
2021/07/19 00:46:06;;;;;;;4.50;3.40;;;22.60;62.60;;;;;;5137063;27;20445;-75
2021/07/19 00:48:34;;;;;;;2.87;2.67;;;22.50;62.50;;;;;;5136706;27;20821;-75
2021/07/19 00:51:01;;;;;;;4.57;3.53;;;22.50;62.80;;;;;;5137022;27;20465;-75
2021/07/19 00:53:28;;;;;;;3.40;3.07;;;22.50;63.00;;;;;;5137071;27;20449;-75
2021/07/19 00:55:56;;;;;;;3.80;3.17;;;22.50;63.00;;;;;;5136621;27;20788;-76
2021/07/19 00:58:28;;;;;;;3.80;3.40;;;22.40;62.80;;;;;;5136687;27;20443;-75
2021/07/19 01:00:58;;;;;;;5.10;3.20;;;22.40;62.90;;;;;;5136791;27;20458;-75
2021/07/19 01:03:26;;;;;;;4.20;2.90;;;22.30;63.10;;;;;;5136458;27;20973;-75
2021/07/19 01:05:56;;;;;;;3.60;3.30;;;22.30;63.40;;;;;;5136619;27;20481;-75
2021/07/19 01:08:23;;;;;;;3.30;2.53;;;22.30;63.50;;;;;;5136645;27;20422;-75
2021/07/19 01:10:50;;;;;;;5.90;3.50;;;22.20;63.50;;;;;;5136244;27;20519;-75
2021/07/19 01:13:17;;;;;;;3.60;3.30;;;22.20;63.50;;;;;;5136296;27;20931;-75
2021/07/19 01:15:44;;;;;;;3.87;2.87;;;22.20;63.40;;;;;;5136557;27;20422;-75
2021/07/19 01:18:11;;;;;;;3.20;3.00;;;22.20;63.50;;;;;;5136555;27;20438;-75
2021/07/19 01:20:51;;;;;;;3.60;3.30;;;22.10;63.50;;;;;;5136385;27;20802;-74
2021/07/19 01:23:57;;;;;;;3.87;3.47;;;22.10;63.90;;;;;;5136528;27;20433;-75
2021/07/19 01:26:37;;;;;;;3.77;3.47;;;22.00;63.80;;;;;;5136386;27;20475;-74
2021/07/19 01:29:07;;;;;;;4.30;3.30;;;22.00;64.20;;;;;;5136047;27;20431;-76
2021/07/19 01:31:39;;;;;;;3.57;3.27;;;21.90;64.20;;;;;;5136190;27;20504;-76
2021/07/19 01:34:08;;;;;;;3.40;3.10;;;21.90;64.20;;;;;;5136323;27;20492;-75
2021/07/19 01:36:37;;;;;;;4.50;3.73;;;21.80;64.60;;;;;;5136212;27;20793;-75
2021/07/19 01:39:05;;;;;;;5.70;3.80;;;21.80;64.50;;;;;;5136115;27;20442;-75
2021/07/19 01:41:33;;;;;;;4.03;3.33;;;21.70;64.80;;;;;;5135964;27;20465;-75
2021/07/19 01:44:02;;;;;;;5.63;3.70;;;21.70;64.90;;;;;;5136011;27;20442;-75
2021/07/19 01:46:30;;;;;;;3.87;3.53;;;21.70;65.00;;;;;;5136241;27;20446;-75
2021/07/19 01:48:59;;;;;;;4.77;4.37;;;21.60;65.00;;;;;;5135921;27;20433;-75
2021/07/19 01:51:28;;;;;;;3.70;2.90;;;21.60;65.10;;;;;;5135600;27;21031;-75
2021/07/19 01:53:57;;;;;;;4.07;3.67;;;21.50;65.30;;;;;;5135781;27;20558;-75
2021/07/19 01:56:25;;;;;;;4.00;3.60;;;21.50;65.40;;;;;;5136625;27;20437;-75
2021/07/19 01:58:53;;;;;;;4.43;4.03;;;21.50;65.40;;;;;;5139114;27;20947;-76
2021/07/19 02:01:20;;;;;;;4.72;3.80;;;21.40;65.40;;;;;;5136440;27;20486;-76
2021/07/19 02:03:48;;;;;;;4.10;3.77;;;21.40;65.40;;;;;;5138443;27;20193;-74
2021/07/19 02:06:15;;;;;;;4.57;3.93;;;21.40;66.00;;;;;;5139038;27;20434;-75
2021/07/19 02:08:44;;;;;;;4.97;3.40;;;21.30;66.10;;;;;;5139061;27;20498;-75
2021/07/19 02:11:11;;;;;;;7.80;3.63;;;21.30;66.10;;;;;;5137975;27;20526;-75
2021/07/19 02:13:42;;;;;;;4.07;3.77;;;21.30;66.20;;;;;;5138251;27;20442;-75
2021/07/19 02:16:10;;;;;;;4.40;3.80;;;21.20;66.20;;;;;;5142213;27;20425;-75
2021/07/19 02:18:40;;;;;;;4.80;4.20;;;21.20;66.20;;;;;;5141524;27;20452;-74
2021/07/19 02:21:09;;;;;;;5.70;3.97;;;21.20;66.50;;;;;;5138902;27;20483;-74
2021/07/19 02:23:38;;;;;;;4.43;3.10;;;21.10;67.60;;;;;;5140449;27;20942;-75
2021/07/19 02:26:05;;;;;;;4.07;3.67;;;21.10;67.00;;;;;;5141675;27;20485;-75
2021/07/19 02:28:35;;;;;;;4.10;3.70;;;21.10;67.00;;;;;;5140586;27;20430;-75
2021/07/19 02:31:04;;;;;;;5.10;3.50;;;21.10;67.10;;;;;;5141106;27;20469;-74
2021/07/19 02:33:33;;;;;;;3.97;3.67;;;21.00;67.10;;;;;;5141298;27;20490;-75
2021/07/19 02:36:01;;;;;;;4.80;4.00;;;21.00;67.20;;;;;;5142493;27;20437;-75
2021/07/19 02:38:30;;;;;;;5.40;3.67;;;21.00;67.40;;;;;;5141197;27;20931;-74
2021/07/19 02:40:59;;;;;;;8.17;4.30;;;21.00;67.80;;;;;;5138554;27;20821;-75
2021/07/19 02:43:26;;;;;;;5.53;3.60;;;20.90;67.80;;;;;;5135796;27;20450;-75
2021/07/19 02:45:55;;;;;;;5.27;3.90;;;20.90;67.80;;;;;;5134813;27;20489;-76
2021/07/19 02:48:22;;;;;;;4.13;3.77;;;20.90;68.10;;;;;;5134785;27;20446;-76
2021/07/19 02:50:54;;;;;;;8.73;5.00;;;20.90;68.00;;;;;;5134455;27;20476;-76
2021/07/19 02:53:22;;;;;;;4.87;4.37;;;20.90;68.10;;;;;;5134848;27;20422;-76
2021/07/19 02:55:52;;;;;;;6.50;4.00;;;20.80;68.00;;;;;;5134442;27;20438;-75
2021/07/19 02:58:19;;;;;;;5.20;4.20;;;20.80;68.20;;;;;;5134661;27;20442;-76
2021/07/19 03:00:49;;;;;;;6.17;5.03;;;20.80;68.20;;;;;;5134566;27;20458;-75
2021/07/19 03:03:19;;;;;;;5.90;4.30;;;20.80;68.50;;;;;;5134474;27;20454;-75
2021/07/19 03:05:51;;;;;;;6.23;5.37;;;20.80;68.90;;;;;;5134594;27;20462;-75
2021/07/19 03:08:19;;;;;;;7.80;4.60;;;20.70;68.50;;;;;;5134609;27;20445;-76
2021/07/19 03:10:53;;;;;;;9.73;4.60;;;20.60;68.20;;;;;;5134316;28;20474;-75
2021/07/19 03:13:24;;;;;;;6.20;4.20;;;20.60;68.10;;;;;;5134135;28;20427;-75
2021/07/19 03:15:52;;;;;;;4.53;4.10;;;20.60;68.00;;;;;;5134632;28;20475;-75
2021/07/19 03:18:20;;;;;;;5.73;4.03;;;20.50;67.80;;;;;;5134004;28;20442;-75
2021/07/19 03:20:48;;;;;;;5.20;4.23;;;20.50;67.60;;;;;;5134305;27;20919;-75
2021/07/19 03:23:17;;;;;;;6.40;4.30;;;20.50;67.60;;;;;;5137833;27;20453;-75
2021/07/19 03:25:44;;;;;;;7.33;4.27;;;20.40;67.60;;;;;;5138649;27;20474;-76
2021/07/19 03:28:13;;;;;;;5.90;4.27;;;20.40;67.80;;;;;;5138258;27;20954;-75
2021/07/19 03:30:43;;;;;;;7.00;4.90;;;20.40;68.00;;;;;;5138419;27;20970;-75
2021/07/19 03:33:10;;;;;;;5.60;4.23;;;20.30;68.20;;;;;;5138372;27;20453;-75
2021/07/19 03:35:37;;;;;;;6.57;4.60;;;20.30;68.20;;;;;;5138454;27;20445;-75
2021/07/19 03:38:05;;;;;;;4.53;4.07;;;20.30;68.90;;;;;;5139201;27;20453;-76
2021/07/19 03:40:32;;;;;;;5.87;5.07;;;20.30;69.20;;;;;;5138982;27;20474;-75
2021/07/19 03:43:01;;;;;;;7.00;4.93;;;20.30;70.00;;;;;;5138021;27;20453;-75
2021/07/19 03:45:31;;;;;;;4.80;4.20;;;20.20;69.90;;;;;;5137848;27;20993;-75
2021/07/19 03:47:59;;;;;;;5.50;4.90;;;20.20;70.40;;;;;;5138178;27;20811;-75
2021/07/19 03:50:27;;;;;;;5.40;5.00;;;20.20;70.40;;;;;;5138403;27;20519;-75
2021/07/19 03:52:54;;;;;;;5.30;4.53;;;20.20;70.60;;;;;;5138046;27;20445;-75
2021/07/19 03:55:21;;;;;;;6.57;5.20;;;20.20;70.90;;;;;;5138095;27;20442;-76
2021/07/19 03:57:50;;;;;;;5.93;5.20;;;20.20;71.20;;;;;;5137726;27;20933;-74
2021/07/19 04:00:19;;;;;;;7.50;4.87;;;20.10;71.40;;;;;;5137869;27;20494;-76
2021/07/19 04:02:51;;;;;;;7.40;5.50;;;20.10;71.70;;;;;;5137763;27;20471;-76
2021/07/19 04:05:20;;;;;;;5.60;5.10;;;20.10;71.90;;;;;;5138013;27;20465;-76
2021/07/19 04:07:49;;;;;;;7.53;5.80;;;20.10;72.00;;;;;;5137425;27;20859;-75
2021/07/19 04:10:17;;;;;;;6.77;5.50;;;20.10;71.90;;;;;;5137524;27;20480;-75
2021/07/19 04:12:46;;;;;;;6.13;5.60;;;20.10;72.10;;;;;;5137423;27;20448;-75
2021/07/19 04:15:14;;;;;;;7.50;5.57;;;20.10;72.20;;;;;;5137703;27;20446;-75
2021/07/19 04:17:41;;;;;;;5.43;4.93;;;20.10;72.20;;;;;;5137672;27;20429;-75
2021/07/19 04:20:12;;;;;;;6.77;6.07;;;20.10;72.20;;;;;;5137638;27;20481;-76
2021/07/19 04:22:39;;;;;;;5.97;5.33;;;20.10;72.60;;;;;;5137885;27;20437;-75
2021/07/19 04:25:09;;;;;;;6.13;5.50;;;20.10;72.70;;;;;;5137123;27;21029;-75
2021/07/19 04:27:37;;;;;;;6.57;4.40;;;20.10;72.80;;;;;;5137458;27;20450;-75
2021/07/19 04:30:05;;;;;;;7.10;6.00;;;20.10;73.00;;;;;;5137343;27;20457;-75
2021/07/19 04:32:32;;;;;;;6.30;5.63;;;20.10;73.20;;;;;;5137040;27;20463;-75
2021/07/19 04:34:59;;;;;;;7.00;5.40;;;20.10;73.30;;;;;;5137612;27;20447;-75
2021/07/19 04:37:27;;;;;;;6.60;5.87;;;20.10;73.20;;;;;;5137224;27;20446;-75
2021/07/19 04:39:54;;;;;;;8.40;5.20;;;20.10;73.40;;;;;;5136849;27;20472;-75
2021/07/19 04:42:21;;;;;;;6.10;5.50;;;20.10;73.60;;;;;;5137190;27;20450;-74
2021/07/19 04:45:39;;;;;;;6.63;5.90;;;20.10;74.00;;;;;;5137055;27;20430;-75
2021/07/19 04:48:06;;;;;;;8.20;6.20;;;20.10;74.30;;;;;;5136999;27;20491;-73
2021/07/19 04:50:33;;;;;;;6.63;6.00;;;20.10;74.90;;;;;;5137013;27;20581;-72
2021/07/19 04:53:02;;;;;;;9.80;6.10;;;20.10;75.10;;;;;;5137263;27;20450;-73
2021/07/19 04:55:30;;;;;;;7.27;6.20;;;20.10;75.20;;;;;;5137545;27;20418;-73
2021/07/19 04:57:59;;;;;;;12.20;5.80;;;20.10;75.40;;;;;;5136831;27;20532;-73
2021/07/19 05:00:27;;;;;;;6.90;5.80;;;20.10;75.70;;;;;;5136773;27;20466;-73
2021/07/19 05:02:55;;;;;;;8.50;6.40;;;20.20;75.90;;;;;;5136476;27;20426;-73
2021/07/19 05:05:25;;;;;;;8.57;6.67;;;20.20;76.00;;;;;;5136872;27;20473;-73
2021/07/19 05:07:53;;;;;;;10.47;7.10;;;20.20;76.10;;;;;;5136728;27;20445;-71
2021/07/19 05:10:23;;;;;;;7.47;6.20;;;20.20;76.40;;;;;;5136426;27;20470;-72
2021/07/19 05:12:52;;;;;;;7.17;6.47;;;20.20;76.60;;;;;;5136692;27;20426;-72
2021/07/19 05:15:20;;;;;;;8.23;6.17;;;20.30;76.70;;;;;;5136589;27;20434;-72
2021/07/19 05:17:48;;;;;;;8.83;6.47;;;20.30;76.90;;;;;;5136552;27;20441;-72
2021/07/19 05:20:16;;;;;;;8.23;6.73;;;20.30;77.20;;;;;;5136518;27;20504;-73
2021/07/19 05:22:46;;;;;;;8.40;7.50;;;20.40;77.60;;;;;;5136558;27;20788;-72
2021/07/19 05:25:14;;;;;;;10.70;6.90;;;20.40;77.60;;;;;;5135915;27;20524;-73
2021/07/19 05:28:02;;;;;;;7.70;7.00;;;20.40;77.70;;;;;;5136992;27;20422;-73
2021/07/19 05:30:29;;;;;;;11.47;8.00;;;20.50;78.00;;;;;;5137160;27;20468;-73
2021/07/19 05:32:56;;;;;;;7.63;6.90;;;20.60;78.50;;;;;;5136501;27;20517;-73
2021/07/19 05:35:23;;;;;;;9.10;7.37;;;20.60;78.60;;;;;;5136719;27;20434;-73
2021/07/19 05:37:50;;;;;;;9.03;7.60;;;20.70;78.70;;;;;;5136004;27;20491;-73
2021/07/19 05:40:18;;;;;;;7.83;6.60;;;20.80;78.40;;;;;;5136450;27;20458;-73
2021/07/19 05:42:46;;;;;;;14.20;8.27;;;20.80;78.00;;;;;;5135829;27;20938;-73
2021/07/19 05:45:14;;;;;;;9.63;8.50;;;20.90;78.40;;;;;;5135150;27;20442;-73
2021/07/19 05:47:41;;;;;;;13.60;7.97;;;21.00;78.80;;;;;;5135955;27;20438;-73
2021/07/19 05:50:09;;;;;;;8.83;7.60;;;21.00;79.00;;;;;;5135943;27;20454;-73
2021/07/19 05:52:36;;;;;;;9.33;7.73;;;21.10;78.60;;;;;;5135922;27;20438;-73
2021/07/19 05:55:06;;;;;;;8.77;7.53;;;21.20;78.50;;;;;;5135576;27;20923;-73
2021/07/19 05:57:33;;;;;;;10.00;8.60;;;21.30;78.00;;;;;;5135850;27;20434;-73
2021/07/19 06:00:01;;;;;;;10.80;9.23;;;21.30;78.00;;;;;;5135637;27;20477;-73
2021/07/19 06:02:29;;;;;;;10.23;8.00;;;21.30;77.60;;;;;;5136322;27;20465;-73
2021/07/19 06:04:57;;;;;;;10.60;7.17;;;21.30;77.40;;;;;;5135502;27;20445;-73
2021/07/19 06:07:23;;;;;;;8.50;7.47;;;21.30;77.50;;;;;;5135382;27;20478;-73
2021/07/19 06:09:50;;;;;;;11.17;9.23;;;21.40;77.40;;;;;;5135330;27;20480;-73
2021/07/19 06:12:17;;;;;;;8.93;7.23;;;21.40;76.90;;;;;;5135397;27;20934;-73
2021/07/19 06:14:44;;;;;;;12.80;8.43;;;21.40;76.80;;;;;;5135468;27;20479;-73
2021/07/19 06:17:13;;;;;;;12.93;9.43;;;21.40;76.40;;;;;;5135369;27;20437;-73
2021/07/19 06:19:40;;;;;;;9.57;8.50;;;21.40;76.30;;;;;;5134883;27;21024;-73
2021/07/19 06:22:08;;;;;;;9.57;8.07;;;21.50;76.50;;;;;;5135294;27;20491;-73
2021/07/19 06:24:34;;;;;;;11.90;8.90;;;21.50;76.40;;;;;;5135282;27;20495;-73
2021/07/19 06:27:01;;;;;;;13.23;9.60;;;21.50;76.40;;;;;;5134694;27;20999;-73
2021/07/19 06:29:28;;;;;;;15.50;9.10;;;21.60;76.30;;;;;;5134763;27;20783;-73
2021/07/19 06:31:54;;;;;;;10.83;9.00;;;21.70;76.50;;;;;;5134824;27;20858;-73
2021/07/19 06:34:22;;;;;;;12.10;8.93;;;21.70;76.30;;;;;;5134838;27;20434;-73
2021/07/19 06:36:49;;;;;;;10.60;8.37;;;21.80;75.80;;;;;;5135275;27;20430;-74
2021/07/19 06:39:16;;;;;;;9.13;8.17;;;21.80;75.90;;;;;;5134921;27;20465;-73
2021/07/19 06:41:43;;;;;;;11.50;8.70;;;21.90;75.80;;;;;;5134839;27;20446;-73
2021/07/19 06:44:09;;;;;;;12.93;8.20;;;21.90;75.40;;;;;;5134654;27;20440;-74
2021/07/19 06:46:36;;;;;;;8.87;7.97;;;22.00;75.30;;;;;;5134606;27;20473;-73
2021/07/19 06:49:04;;;;;;;11.47;8.03;;;22.10;75.20;;;;;;5134746;27;20449;-73
2021/07/19 06:51:33;;;;;;;9.97;8.40;;;22.10;75.10;;;;;;5134535;27;20511;-73
2021/07/19 06:53:59;;;;;;;9.83;8.30;;;22.20;75.10;;;;;;5134432;27;20984;-73
2021/07/19 06:56:27;;;;;;;8.80;7.90;;;22.20;74.70;;;;;;5134207;27;20972;-73
2021/07/19 06:58:53;;;;;;;9.50;8.00;;;22.30;75.20;;;;;;5134686;27;20859;-73
2021/07/19 07:01:20;;;;;;;13.07;9.37;;;22.40;74.50;;;;;;5134593;27;20465;-74
2021/07/19 07:03:47;;;;;;;11.47;9.07;;;22.40;74.10;;;;;;5134511;27;20480;-74
2021/07/19 07:06:14;;;;;;;10.80;8.03;;;22.40;73.90;;;;;;5134368;27;20470;-74
2021/07/19 07:08:42;;;;;;;9.53;8.40;;;22.50;74.00;;;;;;5134493;27;20446;-74
2021/07/19 07:11:08;;;;;;;9.47;8.50;;;22.50;73.60;;;;;;5134220;28;20497;-74
2021/07/19 07:13:35;;;;;;;12.20;7.70;;;22.70;73.60;;;;;;5134798;28;20471;-74
2021/07/19 07:16:02;;;;;;;10.13;8.90;;;22.80;73.40;;;;;;5134182;28;20863;-74
2021/07/19 07:18:28;;;;;;;9.67;8.67;;;22.90;72.80;;;;;;5134329;28;20442;-75
2021/07/19 07:20:55;;;;;;;8.43;7.63;;;23.00;72.30;;;;;;5134683;28;20457;-74
2021/07/19 07:23:22;;;;;;;10.20;9.20;;;23.20;72.20;;;;;;5134027;28;20823;-74
2021/07/19 07:25:50;;;;;;;11.93;8.70;;;23.30;71.50;;;;;;5134286;28;20840;-74
2021/07/19 07:28:16;;;;;;;11.27;8.97;;;23.50;70.60;;;;;;5134388;28;20445;-74
2021/07/19 07:30:43;;;;;;;11.07;9.00;;;23.60;69.50;;;;;;5133925;28;20454;-74
2021/07/19 07:33:10;;;;;;;9.40;8.53;;;23.80;68.90;;;;;;5134382;28;20449;-74
2021/07/19 07:35:40;;;;;;;10.10;9.00;;;23.90;68.50;;;;;;5134339;28;20453;-74
2021/07/19 07:38:07;;;;;;;11.40;9.13;;;24.10;68.00;;;;;;5134390;28;20473;-74
2021/07/19 07:40:35;;;;;;;9.73;7.57;;;24.30;67.10;;;;;;5134329;28;20950;-74
2021/07/19 07:43:03;;;;;;;11.30;8.20;;;24.50;66.30;;;;;;5134977;28;20442;-74
2021/07/19 07:45:30;;;;;;;9.50;8.10;;;24.60;65.30;;;;;;5134143;28;20441;-74
2021/07/19 07:47:57;;;;;;;8.93;7.57;;;24.80;64.00;;;;;;5134054;28;20481;-75
2021/07/19 07:50:23;;;;;;;11.57;8.57;;;24.90;63.60;;;;;;5134078;28;20526;-74
2021/07/19 07:52:50;;;;;;;8.83;7.40;;;25.10;62.90;;;;;;5134117;28;20934;-74
2021/07/19 07:55:17;;;;;;;10.17;8.30;;;25.20;62.00;;;;;;5134094;28;20457;-74
2021/07/19 07:57:44;;;;;;;9.70;8.80;;;25.30;61.50;;;;;;5134171;28;20429;-74
2021/07/19 08:00:15;;;;;;;12.07;8.90;;;25.40;60.80;;;;;;5133695;28;20472;-74
2021/07/19 08:02:42;;;;;;;11.10;8.10;;;25.40;60.10;;;;;;5134031;28;20423;-74
2021/07/19 08:05:10;;;;;;;8.93;7.90;;;25.50;59.60;;;;;;5134046;28;20859;-74
2021/07/19 08:07:37;;;;;;;8.40;7.43;;;25.60;59.20;;;;;;5134071;27;20469;-74
2021/07/19 08:10:05;;;;;;;9.30;8.10;;;25.70;58.90;;;;;;5137311;27;20473;-74
2021/07/19 08:12:32;;;;;;;9.17;8.27;;;25.80;58.30;;;;;;5137796;27;20442;-74
2021/07/19 08:14:59;;;;;;;9.87;8.73;;;25.90;57.70;;;;;;5137759;27;20454;-74
2021/07/19 08:17:27;;;;;;;10.27;9.27;;;26.00;57.00;;;;;;5137689;27;20552;-74
2021/07/19 08:19:56;;;;;;;11.00;9.90;;;26.10;56.60;;;;;;5137516;27;20468;-75
2021/07/19 08:22:23;;;;;;;10.37;8.80;;;26.20;56.10;;;;;;5137725;27;20446;-74
2021/07/19 08:24:50;;;;;;;9.77;8.77;;;26.30;55.30;;;;;;5137529;27;20791;-74
2021/07/19 08:27:17;;;;;;;10.60;9.10;;;26.30;55.50;;;;;;5137408;27;20493;-75
2021/07/19 08:29:44;;;;;;;10.20;9.10;;;26.30;55.00;;;;;;5137362;27;20461;-74
2021/07/19 08:32:10;;;;;;;9.60;8.60;;;26.40;55.00;;;;;;5137456;27;20449;-75
2021/07/19 08:34:38;;;;;;;9.47;8.57;;;26.30;55.50;;;;;;5137318;27;20438;-73
2021/07/19 08:37:05;;;;;;;9.83;8.80;;;26.20;54.90;;;;;;5137296;27;20446;-73
2021/07/19 08:39:32;;;;;;;9.33;8.43;;;26.20;55.00;;;;;;5137481;27;20441;-74
2021/07/19 08:41:59;;;;;;;9.93;8.93;;;26.10;55.00;;;;;;5137129;27;20430;-74
2021/07/19 08:44:28;;;;;;;9.73;8.73;;;26.10;55.40;;;;;;5136702;27;20425;-74
2021/07/19 08:46:54;;;;;;;11.23;10.00;;;26.10;55.30;;;;;;5136864;27;20462;-75
2021/07/19 08:49:21;;;;;;;10.57;9.67;;;26.20;55.10;;;;;;5137018;27;20422;-73
2021/07/19 08:51:50;;;;;;;9.73;8.83;;;26.20;54.40;;;;;;5136942;27;20449;-73
2021/07/19 08:54:16;;;;;;;11.33;10.23;;;26.30;54.80;;;;;;5136656;27;20422;-73
2021/07/19 08:56:44;;;;;;;11.53;9.93;;;26.30;55.50;;;;;;5136875;27;20434;-73
2021/07/19 08:59:17;;;;;;;16.00;10.00;;;26.40;54.70;;;;;;5136796;27;20438;-73
2021/07/19 09:01:45;;;;;;;10.60;9.57;;;26.40;54.80;;;;;;5136901;27;20469;-73
2021/07/19 09:04:19;;;;;;;12.40;11.20;;;26.40;54.50;;;;;;5136692;27;20422;-73
2021/07/19 09:06:46;;;;;;;10.80;9.90;;;26.50;54.30;;;;;;5137346;27;20880;-74
2021/07/19 09:09:14;;;;;;;12.23;11.13;;;26.60;54.20;;;;;;5136536;27;20426;-72
2021/07/19 09:11:48;;;;;;;12.03;10.93;;;26.70;54.30;;;;;;5136853;27;20426;-74
2021/07/19 09:14:16;;;;;;;14.03;12.50;;;26.80;53.40;;;;;;5136988;27;20419;-74
2021/07/19 09:16:44;;;;;;;14.17;12.87;;;26.90;53.20;;;;;;5136853;27;20483;-74
2021/07/19 09:19:13;;;;;;;15.23;13.77;;;27.00;53.00;;;;;;5136597;27;20430;-74
2021/07/19 09:21:42;;;;;;;19.50;17.80;;;27.10;52.60;;;;;;5136614;27;20430;-74
2021/07/19 09:24:11;;;;;;;20.60;18.77;;;27.10;52.50;;;;;;5136330;27;20937;-74
2021/07/19 09:26:42;;;;;;;20.33;18.53;;;27.20;52.20;;;;;;5136821;27;20469;-74
2021/07/19 09:29:11;;;;;;;16.67;15.17;;;27.30;51.70;;;;;;5136863;27;20422;-74
2021/07/19 09:31:41;;;;;;;18.00;16.30;;;27.40;51.40;;;;;;5136373;27;20473;-74
2021/07/19 09:34:13;;;;;;;17.07;15.63;;;27.40;51.10;;;;;;5136013;27;20429;-74
2021/07/19 09:36:53;;;;;;;17.50;15.90;;;27.50;51.40;;;;;;5135890;27;20429;-74
2021/07/19 09:39:20;;;;;;;18.00;16.20;;;27.60;51.10;;;;;;5136364;27;20427;-74
2021/07/19 09:41:49;;;;;;;16.93;15.40;;;27.60;50.60;;;;;;5136561;27;20427;-74
2021/07/19 09:44:15;;;;;;;18.60;16.93;;;27.70;50.50;;;;;;5136178;27;20501;-73
2021/07/19 09:46:42;;;;;;;20.20;18.40;;;27.70;50.50;;;;;;5136105;27;20469;-74
2021/07/19 09:49:09;;;;;;;17.90;16.30;;;27.60;50.50;;;;;;5135837;27;20433;-74
2021/07/19 09:51:37;;;;;;;16.13;14.53;;;27.70;50.90;;;;;;5135745;27;20469;-74
2021/07/19 09:54:12;;;;;;;15.20;13.80;;;27.70;50.90;;;;;;5135848;27;20433;-74
2021/07/19 09:56:39;;;;;;;15.30;13.70;;;27.70;50.90;;;;;;5135900;27;20433;-73
2021/07/19 09:59:09;;;;;;;15.43;13.93;;;27.70;51.50;;;;;;5135641;27;20431;-73
2021/07/19 10:01:38;;;;;;;16.70;14.43;;;27.70;50.80;;;;;;5135603;27;20465;-74
2021/07/19 10:04:07;;;;;;;14.93;13.17;;;27.60;50.70;;;;;;5135216;27;20426;-73
2021/07/19 10:06:34;;;;;;;13.50;12.30;;;27.60;50.70;;;;;;5135239;27;20430;-73
2021/07/19 10:09:01;;;;;;;14.90;13.60;;;27.50;50.80;;;;;;5135124;27;20833;-74
2021/07/19 10:11:33;;;;;;;16.67;13.43;;;27.50;51.20;;;;;;5134915;27;20485;-74
2021/07/19 10:14:00;;;;;;;13.70;12.40;;;27.50;51.50;;;;;;5135021;27;20441;-74
2021/07/19 10:16:30;;;;;;;14.83;13.27;;;27.50;51.60;;;;;;5135212;27;20479;-74
2021/07/19 10:18:58;;;;;;;15.00;13.57;;;27.50;51.50;;;;;;5135809;27;20436;-74
2021/07/19 10:21:29;;;;;;;14.30;13.00;;;27.50;51.00;;;;;;5135197;27;20469;-74
2021/07/19 10:23:59;;;;;;;16.30;14.67;;;27.50;51.10;;;;;;5135110;27;20791;-74
2021/07/19 10:26:26;;;;;;;15.63;14.03;;;27.30;50.80;;;;;;5135009;27;20479;-75
2021/07/19 10:28:53;;;;;;;15.00;13.50;;;27.20;50.90;;;;;;5135179;27;20462;-73
2021/07/19 10:31:20;;;;;;;16.17;14.47;;;27.10;51.00;;;;;;5134518;27;20798;-74
2021/07/19 10:33:50;;;;;;;14.73;13.40;;;27.00;51.10;;;;;;5135168;27;20481;-74
2021/07/19 10:36:22;;;;;;;14.83;13.37;;;26.90;51.50;;;;;;5134942;27;20422;-74
2021/07/19 10:38:50;;;;;;;15.10;13.73;;;26.90;52.10;;;;;;5134989;27;20437;-74
2021/07/19 10:41:23;;;;;;;14.80;13.50;;;26.90;52.20;;;;;;5134562;27;20462;-74
2021/07/19 10:44:02;;;;;;;15.57;13.97;;;27.00;51.90;;;;;;5135646;27;20756;-74
2021/07/19 10:46:29;;;;;;;15.80;14.20;;;27.00;52.00;;;;;;5134848;27;20430;-74
2021/07/19 10:49:09;;;;;;;14.20;12.90;;;27.10;52.10;;;;;;5134590;27;20477;-74
2021/07/19 10:51:41;;;;;;;14.27;12.97;;;27.30;52.40;;;;;;5134551;27;20469;-74
2021/07/19 10:54:19;;;;;;;14.80;13.40;;;27.50;51.90;;;;;;5134253;27;20449;-74
2021/07/19 10:56:47;;;;;;;16.27;14.77;;;27.70;50.90;;;;;;5134302;27;20426;-74
2021/07/19 10:59:25;;;;;;;15.50;14.10;;;27.90;49.00;;;;;;5134468;27;20446;-74
2021/07/19 11:01:53;;;;;;;14.47;13.07;;;28.10;49.30;;;;;;5134514;27;20433;-74
2021/07/19 11:04:22;;;;;;;16.50;15.00;;;28.20;49.10;;;;;;5134352;27;20498;-74
2021/07/19 11:06:56;;;;;;;15.83;14.43;;;28.50;48.60;;;;;;5134373;27;20441;-74
2021/07/19 11:09:34;;;;;;;18.40;15.93;;;28.70;47.90;;;;;;5134194;27;20774;-74
2021/07/19 11:12:07;;;;;;;15.70;14.23;;;28.90;47.40;;;;;;5134425;27;20859;-74
2021/07/19 11:14:42;;;;;;;18.27;16.50;;;29.00;46.90;;;;;;5134379;27;20453;-74
2021/07/19 11:17:10;;;;;;;17.80;16.20;;;29.20;47.30;;;;;;5134343;28;20861;-74
2021/07/19 11:19:40;;;;;;;18.83;17.03;;;29.30;46.00;;;;;;5134364;28;20477;-74
2021/07/19 11:22:08;;;;;;;22.83;18.23;;;29.40;45.30;;;;;;5134267;28;20454;-74
2021/07/19 11:24:41;;;;;;;23.10;21.00;;;29.40;45.50;;;;;;5134028;28;20453;-74
2021/07/19 11:27:45;;;;;;;22.63;20.50;;;29.40;45.50;;;;;;5134092;28;20470;-74
2021/07/19 11:30:17;;;;;;;22.03;20.03;;;29.30;45.20;;;;;;5134250;28;20876;-75
2021/07/19 11:32:44;;;;;;;22.67;20.40;;;29.30;45.70;;;;;;5133904;28;20434;-75
2021/07/19 11:35:15;;;;;;;23.80;21.73;;;29.20;45.90;;;;;;5133730;28;20810;-75
2021/07/19 11:37:44;;;;;;;22.03;20.00;;;29.20;45.80;;;;;;5134820;28;20426;-75
2021/07/19 11:40:14;;;;;;;23.33;21.23;;;29.30;46.20;;;;;;5133616;28;20466;-74
2021/07/19 11:42:42;;;;;;;20.97;19.13;;;29.40;45.90;;;;;;5134888;27;20445;-75
2021/07/19 11:45:16;;;;;;;20.70;19.00;;;29.50;44.50;;;;;;5138054;27;20860;-75
2021/07/19 11:47:47;;;;;;;19.27;17.67;;;29.60;44.00;;;;;;5138171;27;20507;-75
2021/07/19 11:50:18;;;;;;;19.20;17.50;;;29.90;44.10;;;;;;5137869;27;20872;-72
2021/07/19 11:52:46;;;;;;;22.13;20.20;;;30.50;43.70;;;;;;5138151;27;20491;-75
2021/07/19 11:55:15;;;;;;;18.80;17.20;;;31.60;42.20;;;;;;5137869;27;20448;-75
2021/07/19 11:57:43;;;;;;;21.73;19.70;;;32.70;39.80;;;;;;5138023;27;20437;-73
2021/07/19 12:00:12;;;;;;;19.93;18.33;;;33.90;37.50;;;;;;5137889;27;20465;-73
2021/07/19 12:02:39;;;;;;;22.00;20.17;;;34.40;35.90;;;;;;5137827;27;20448;-75
2021/07/19 12:05:13;;;;;;;21.50;19.70;;;34.50;35.60;;;;;;5137719;27;20452;-75
2021/07/19 12:07:42;;;;;;;20.43;18.73;;;34.30;34.10;;;;;;5137725;27;20509;-75
2021/07/19 12:10:09;;;;;;;21.90;19.90;;;33.90;34.60;;;;;;5137857;27;20511;-73
2021/07/19 12:12:36;;;;;;;20.13;18.43;;;33.40;35.70;;;;;;5137249;27;20441;-73
2021/07/19 12:15:04;;;;;;;19.47;17.93;;;33.10;36.90;;;;;;5137458;27;20444;-74
2021/07/19 12:17:32;;;;;;;20.37;18.47;;;32.90;37.60;;;;;;5137553;27;20437;-73
2021/07/19 12:19:59;;;;;;;20.40;18.50;;;33.20;37.40;;;;;;5137588;27;20500;-75
2021/07/19 12:22:26;;;;;;;20.27;18.50;;;33.40;35.70;;;;;;5137373;27;20433;-72
2021/07/19 12:24:55;;;;;;;19.10;17.53;;;33.30;36.00;;;;;;5137435;27;20437;-75
2021/07/19 12:27:22;;;;;;;19.30;17.80;;;33.30;36.70;;;;;;5137037;27;20452;-75
2021/07/19 12:29:51;;;;;;;18.17;16.57;;;33.30;37.10;;;;;;5137208;27;20465;-75
2021/07/19 12:32:19;;;;;;;19.07;17.57;;;33.60;36.70;;;;;;5137143;27;20455;-73
2021/07/19 12:34:47;;;;;;;18.40;16.87;;;34.00;35.70;;;;;;5136850;27;20927;-74
2021/07/19 12:37:15;;;;;;;18.13;16.50;;;34.30;35.60;;;;;;5137189;27;20441;-73
2021/07/19 12:39:46;;;;;;;19.50;17.77;;;34.70;35.00;;;;;;5137092;27;20457;-73
2021/07/19 12:42:16;;;;;;;18.00;16.60;;;34.80;34.30;;;;;;5137046;27;20426;-74
2021/07/19 12:44:45;;;;;;;18.00;16.50;;;35.00;34.10;;;;;;5137075;27;20437;-73
2021/07/19 12:47:16;;;;;;;18.17;16.67;;;35.50;33.40;;;;;;5136575;27;20456;-74